Time;durP1;ratioP1;P1;durP2;ratioP2;P2;SDS_P1;SDS_P2;PMS_P1;PMS_P2;Temp;Humidity;BMP_temperature;BMP_pressure;BME280_temperature;BME280_humidity;BME280_pressure;Samples;Min_cycle;Max_cycle;Signal;HPM_P1;HPM_P2
2023/07/27 00:00:09;;;;;;;3.08;1.70;;;19.40;85.30;;;;;;4995221;28;20029;-81
2023/07/27 00:02:35;;;;;;;3.75;1.77;;;19.50;85.20;;;;;;5011481;28;20030;-80
2023/07/27 00:05:02;;;;;;;3.33;1.80;;;19.50;85.20;;;;;;4995211;28;20113;-81
2023/07/27 00:07:27;;;;;;;3.35;1.50;;;19.40;85.10;;;;;;5012881;28;20022;-81
2023/07/27 00:09:53;;;;;;;3.67;1.92;;;19.50;85.20;;;;;;5016493;28;20428;-81
2023/07/27 00:12:19;;;;;;;3.83;1.75;;;19.50;85.10;;;;;;5015127;28;20022;-81
2023/07/27 00:14:44;;;;;;;3.53;1.67;;;19.50;85.10;;;;;;5014790;28;20124;-81
2023/07/27 00:17:10;;;;;;;3.35;1.67;;;19.50;85.20;;;;;;5016150;28;20026;-81
2023/07/27 00:19:35;;;;;;;3.67;1.60;;;19.50;85.30;;;;;;5016206;28;20018;-80
2023/07/27 00:22:01;;;;;;;3.10;1.70;;;19.40;85.30;;;;;;5018074;28;20025;-81
2023/07/27 00:24:27;;;;;;;3.30;1.77;;;19.40;85.40;;;;;;5017876;28;20025;-80
2023/07/27 00:26:52;;;;;;;4.32;1.67;;;19.40;85.60;;;;;;5017934;28;20049;-81
2023/07/27 00:29:18;;;;;;;3.20;1.77;;;19.40;85.60;;;;;;5017981;28;20449;-81
2023/07/27 00:31:44;;;;;;;3.45;1.70;;;19.40;85.70;;;;;;5035702;28;20036;-81
2023/07/27 00:34:09;;;;;;;3.70;1.70;;;19.40;85.80;;;;;;5017647;28;20385;-81
2023/07/27 00:36:35;;;;;;;5.00;2.00;;;19.30;85.80;;;;;;5014517;28;20159;-81
2023/07/27 00:39:00;;;;;;;3.72;1.80;;;19.30;85.80;;;;;;4998094;28;20400;-81
2023/07/27 00:41:26;;;;;;;3.33;1.65;;;19.30;85.80;;;;;;4998318;28;20030;-81
2023/07/27 00:43:51;;;;;;;4.03;1.98;;;19.30;85.80;;;;;;4998048;28;20030;-81
2023/07/27 00:46:17;;;;;;;2.75;1.55;;;19.30;85.90;;;;;;5015415;28;20022;-81
2023/07/27 00:48:43;;;;;;;3.67;1.73;;;19.30;85.80;;;;;;5015584;28;20447;-81
2023/07/27 00:51:10;;;;;;;2.75;1.60;;;19.30;85.80;;;;;;4997526;28;20025;-81
2023/07/27 00:53:36;;;;;;;3.08;1.67;;;19.30;85.80;;;;;;4998310;28;20025;-81
2023/07/27 00:56:02;;;;;;;3.90;2.00;;;19.30;85.80;;;;;;5015644;28;20021;-81
2023/07/27 00:58:28;;;;;;;3.45;1.77;;;19.30;85.80;;;;;;4998217;28;20120;-81
2023/07/27 01:00:54;;;;;;;3.42;1.88;;;19.30;85.80;;;;;;4998321;28;20475;-80
2023/07/27 01:03:20;;;;;;;3.88;1.70;;;19.30;85.80;;;;;;4997673;28;20029;-82
2023/07/27 01:05:46;;;;;;;4.10;1.90;;;19.30;86.40;;;;;;5014372;28;20503;-81
2023/07/27 01:08:11;;;;;;;3.47;1.80;;;19.30;85.80;;;;;;5035144;28;20045;-81
2023/07/27 01:10:45;;;;;;;3.95;2.03;;;19.30;85.80;;;;;;5017719;28;20037;-81
2023/07/27 01:13:30;;;;;;;4.03;1.75;;;19.30;85.80;;;;;;5017130;28;20026;-81
2023/07/27 01:16:00;;;;;;;2.95;1.73;;;19.30;85.80;;;;;;5017166;28;20075;-81
2023/07/27 01:18:40;;;;;;;3.42;1.80;;;19.30;85.80;;;;;;5017592;28;20445;-78
2023/07/27 01:21:19;;;;;;;4.35;1.95;;;19.30;85.70;;;;;;5018710;28;20032;-81
2023/07/27 01:24:09;;;;;;;3.53;1.80;;;19.30;85.60;;;;;;5036507;28;20037;-82
2023/07/27 01:26:59;;;;;;;4.30;1.92;;;19.30;85.60;;;;;;5037061;28;20056;-81
2023/07/27 01:29:40;;;;;;;4.18;1.88;;;19.30;85.40;;;;;;5036592;28;20038;-81
2023/07/27 01:32:09;;;;;;;3.35;1.70;;;19.40;85.50;;;;;;5018476;28;20021;-81
2023/07/27 01:34:39;;;;;;;4.65;2.00;;;19.40;85.40;;;;;;5018381;28;20124;-81
2023/07/27 01:37:08;;;;;;;4.25;2.00;;;19.40;85.30;;;;;;5018714;28;20018;-81
2023/07/27 01:39:40;;;;;;;3.72;1.92;;;19.40;85.30;;;;;;5036337;28;20017;-81
2023/07/27 01:42:12;;;;;;;3.03;1.80;;;19.40;85.30;;;;;;5018353;28;20095;-82
2023/07/27 01:44:39;;;;;;;3.83;2.00;;;19.40;85.50;;;;;;5018644;28;20045;-81
2023/07/27 01:47:07;;;;;;;3.25;1.90;;;19.40;85.20;;;;;;5018021;28;20068;-81
2023/07/27 01:49:34;;;;;;;2.85;1.60;;;19.40;85.20;;;;;;5017578;28;20033;-81
2023/07/27 01:52:02;;;;;;;3.67;1.85;;;19.40;85.20;;;;;;5017181;28;20550;-81
2023/07/27 01:54:28;;;;;;;3.78;1.85;;;19.30;85.20;;;;;;5016891;28;20032;-81
2023/07/27 01:56:55;;;;;;;3.55;1.63;;;19.40;85.40;;;;;;5034645;28;20134;-81
2023/07/27 01:59:21;;;;;;;3.80;1.75;;;19.40;85.30;;;;;;5016702;28;20029;-80
2023/07/27 02:01:48;;;;;;;3.42;1.70;;;19.30;85.40;;;;;;5016591;28;20075;-81
2023/07/27 02:04:14;;;;;;;5.32;2.00;;;19.30;85.50;;;;;;5015949;28;20083;-81
2023/07/27 02:06:39;;;;;;;3.47;1.77;;;19.30;85.60;;;;;;5034283;28;20029;-81
2023/07/27 02:09:05;;;;;;;2.85;1.70;;;19.30;85.50;;;;;;5034238;28;20391;-79
2023/07/27 02:11:31;;;;;;;3.53;1.80;;;19.30;85.80;;;;;;5016233;28;20025;-81
2023/07/27 02:14:05;;;;;;;3.83;1.88;;;19.30;85.80;;;;;;5016576;28;20022;-81
2023/07/27 02:16:50;;;;;;;3.42;1.88;;;19.30;85.80;;;;;;5016189;28;20033;-81
2023/07/27 02:19:16;;;;;;;4.00;1.88;;;19.30;85.80;;;;;;5016295;28;20022;-81
2023/07/27 02:21:44;;;;;;;4.20;1.88;;;19.20;85.80;;;;;;5013635;28;20269;-82
2023/07/27 02:24:10;;;;;;;3.35;1.70;;;19.10;85.80;;;;;;4996206;28;20042;-80
2023/07/27 02:26:35;;;;;;;3.47;1.77;;;19.20;85.80;;;;;;5013548;28;20073;-81
2023/07/27 02:29:01;;;;;;;3.85;2.00;;;19.20;85.80;;;;;;5034954;28;20026;-81
2023/07/27 02:31:27;;;;;;;3.63;1.85;;;19.20;85.80;;;;;;5015034;28;20025;-81
2023/07/27 02:33:52;;;;;;;3.50;1.58;;;19.30;85.80;;;;;;5019348;28;20087;-81
2023/07/27 02:36:18;;;;;;;3.92;1.83;;;19.20;85.80;;;;;;5021099;28;20018;-80
2023/07/27 02:38:43;;;;;;;3.25;1.70;;;19.20;85.80;;;;;;5033271;28;20392;-81
2023/07/27 02:41:10;;;;;;;3.47;1.80;;;19.20;85.80;;;;;;5015781;28;20033;-81
2023/07/27 02:43:36;;;;;;;2.30;1.42;;;19.20;85.80;;;;;;5015517;28;20055;-80
2023/07/27 02:46:01;;;;;;;3.17;1.70;;;19.20;85.70;;;;;;5015560;28;20097;-80
2023/07/27 02:48:27;;;;;;;3.97;1.95;;;19.20;85.80;;;;;;5019989;28;20079;-81
2023/07/27 02:50:53;;;;;;;3.22;1.70;;;19.30;85.80;;;;;;5035248;28;20390;-81
2023/07/27 02:53:18;;;;;;;2.90;1.70;;;19.30;85.80;;;;;;5035334;28;20104;-80
2023/07/27 02:55:55;;;;;;;3.90;1.65;;;19.20;85.70;;;;;;5052804;28;20518;-81
2023/07/27 02:58:21;;;;;;;3.15;1.60;;;19.20;85.80;;;;;;5052866;28;20021;-81
2023/07/27 03:00:59;;;;;;;3.05;1.60;;;19.20;85.60;;;;;;5035523;28;20078;-80
2023/07/27 03:03:25;;;;;;;3.42;1.80;;;19.30;85.60;;;;;;5034806;28;20075;-81
2023/07/27 03:05:58;;;;;;;3.45;1.67;;;19.30;85.50;;;;;;5016328;28;20021;-81
2023/07/27 03:08:24;;;;;;;3.55;1.73;;;19.30;85.50;;;;;;5015294;28;20391;-81
2023/07/27 03:10:50;;;;;;;4.07;2.00;;;19.30;85.50;;;;;;5015098;28;20018;-81
2023/07/27 03:13:15;;;;;;;3.95;1.83;;;19.30;85.40;;;;;;5014897;28;20025;-81
2023/07/27 03:15:41;;;;;;;3.65;1.80;;;19.30;85.90;;;;;;5032553;28;20120;-81
2023/07/27 03:18:07;;;;;;;3.88;1.70;;;19.30;85.40;;;;;;5032766;28;20029;-81
2023/07/27 03:20:43;;;;;;;2.95;1.83;;;19.30;85.30;;;;;;5015045;28;20037;-81
2023/07/27 03:23:09;;;;;;;3.03;1.70;;;19.30;85.30;;;;;;5032432;28;20048;-81
2023/07/27 03:25:36;;;;;;;2.78;1.70;;;19.40;85.20;;;;;;5015252;28;20426;-81
2023/07/27 03:28:03;;;;;;;2.38;1.45;;;19.40;85.30;;;;;;5032779;28;20041;-81
2023/07/27 03:30:28;;;;;;;3.42;1.80;;;19.40;85.30;;;;;;5015274;28;20025;-81
2023/07/27 03:32:54;;;;;;;3.33;1.92;;;19.40;85.40;;;;;;5014945;28;20172;-80
2023/07/27 03:35:20;;;;;;;3.05;1.65;;;19.30;85.30;;;;;;5014745;28;20163;-81
2023/07/27 03:37:45;;;;;;;3.90;1.90;;;19.30;85.20;;;;;;5032557;28;20036;-80
2023/07/27 03:40:11;;;;;;;3.97;1.80;;;19.30;85.40;;;;;;5032534;28;20052;-80
2023/07/27 03:42:36;;;;;;;3.95;1.92;;;19.20;85.30;;;;;;5016747;28;20068;-80
2023/07/27 03:45:02;;;;;;;2.85;1.67;;;19.20;85.60;;;;;;5036273;28;20022;-80
2023/07/27 03:47:27;;;;;;;3.08;1.52;;;19.20;85.60;;;;;;5036562;28;20022;-81
2023/07/27 03:49:53;;;;;;;2.92;1.50;;;19.20;85.80;;;;;;5036403;28;20029;-80
2023/07/27 03:52:18;;;;;;;3.55;1.80;;;19.20;85.90;;;;;;5018628;28;20021;-80
2023/07/27 03:54:44;;;;;;;3.42;1.90;;;19.20;85.90;;;;;;5018391;28;20022;-81
2023/07/27 03:57:09;;;;;;;2.83;1.60;;;19.20;85.90;;;;;;5018676;28;20026;-81
2023/07/27 03:59:35;;;;;;;3.65;1.70;;;19.20;85.90;;;;;;5018693;28;20022;-81
2023/07/27 04:02:00;;;;;;;3.05;1.45;;;19.20;86.00;;;;;;5036352;28;20036;-81
2023/07/27 04:04:26;;;;;;;3.05;1.70;;;19.20;86.00;;;;;;5018272;28;20052;-80
2023/07/27 04:06:51;;;;;;;3.47;1.60;;;19.20;86.00;;;;;;5036165;28;20506;-81
2023/07/27 04:09:17;;;;;;;2.25;1.38;;;19.20;86.00;;;;;;5017403;28;20025;-80
2023/07/27 04:11:43;;;;;;;3.80;1.67;;;19.20;86.00;;;;;;5038104;28;20042;-84
2023/07/27 04:14:08;;;;;;;3.67;1.70;;;19.20;85.90;;;;;;5021390;28;20025;-82
2023/07/27 04:16:34;;;;;;;3.28;1.70;;;19.20;85.90;;;;;;5020199;28;20033;-82
2023/07/27 04:18:59;;;;;;;2.60;1.60;;;19.10;86.00;;;;;;5023316;28;20021;-82
2023/07/27 04:21:25;;;;;;;2.72;1.60;;;19.20;86.00;;;;;;5023153;28;20029;-82
2023/07/27 04:23:50;;;;;;;2.20;1.40;;;19.20;86.00;;;;;;5022844;28;20037;-83
2023/07/27 04:31:26;;;;;;;3.33;1.60;;;19.20;85.90;;;;;;5039511;28;20641;-83
2023/07/27 04:33:54;;;;;;;3.30;1.65;;;19.20;85.90;;;;;;5041997;28;20080;-83
2023/07/27 05:15:43;;;;;;;4.82;1.88;;;19.30;85.40;;;;;;5030763;28;20050;-79
2023/07/27 05:18:27;;;;;;;18.30;2.50;;;19.20;85.40;;;;;;4980239;28;20026;-77
2023/07/27 05:21:05;;;;;;;5.45;2.10;;;19.20;85.50;;;;;;4980112;28;20031;-78
2023/07/27 05:23:45;;;;;;;3.38;1.80;;;20.10;86.10;;;;;;4980091;28;20026;-80
2023/07/27 05:27:15;;;;;;;5.13;1.83;;;19.30;85.80;;;;;;5022896;23;20038;-83
2023/07/27 05:47:20;;;;;;;4.63;1.80;;;19.20;86.10;;;;;;5064683;26;20586;-81
2023/07/27 05:50:44;;;;;;;4.22;1.67;;;19.20;86.10;;;;;;5039528;28;20030;-81
2023/07/27 06:10:36;;;;;;;3.70;1.80;;;19.20;86.20;;;;;;4881601;29;20133;-81
2023/07/27 06:13:10;;;;;;;3.67;1.75;;;20.10;86.70;;;;;;4940959;29;20547;-80
2023/07/27 06:22:21;;;;;;;3.13;1.60;;;19.20;86.00;;;;;;5035784;28;20024;-79
2023/07/27 06:25:11;;;;;;;3.83;1.80;;;19.20;85.90;;;;;;5018092;28;20021;-80
2023/07/27 06:27:37;;;;;;;5.03;1.77;;;19.10;85.80;;;;;;5018408;28;20022;-80
2023/07/27 06:30:03;;;;;;;4.00;1.88;;;19.20;85.80;;;;;;5018707;28;20021;-79
2023/07/27 06:32:28;;;;;;;3.83;1.83;;;19.20;85.70;;;;;;5019266;28;20018;-82
2023/07/27 06:34:54;;;;;;;3.50;1.70;;;19.30;85.70;;;;;;5018492;28;20090;-79
2023/07/27 06:37:19;;;;;;;4.57;1.83;;;19.30;85.70;;;;;;5018254;28;20025;-81
2023/07/27 06:39:45;;;;;;;3.72;1.60;;;19.30;85.60;;;;;;5017118;28;20085;-80
2023/07/27 06:42:10;;;;;;;4.72;1.90;;;19.30;85.60;;;;;;5017435;28;20018;-81
2023/07/27 06:44:36;;;;;;;4.07;2.00;;;19.30;85.60;;;;;;5017964;28;20033;-79
2023/07/27 06:47:01;;;;;;;3.53;1.67;;;19.30;86.10;;;;;;5017923;28;20018;-79
2023/07/27 06:49:27;;;;;;;6.05;1.95;;;19.30;85.70;;;;;;5016575;28;20045;-80
2023/07/27 06:51:52;;;;;;;3.38;1.60;;;19.30;85.40;;;;;;5017060;28;20018;-80
2023/07/27 06:54:18;;;;;;;3.22;1.65;;;19.30;85.20;;;;;;5016654;28;20029;-80
2023/07/27 06:56:44;;;;;;;4.95;1.80;;;19.20;85.20;;;;;;5017861;28;20033;-79
2023/07/27 06:59:09;;;;;;;4.07;1.80;;;19.20;85.40;;;;;;5015870;28;20021;-81
2023/07/27 07:01:35;;;;;;;3.25;1.88;;;19.20;85.90;;;;;;5015189;28;20064;-79
2023/07/27 07:04:00;;;;;;;3.83;2.00;;;19.20;85.50;;;;;;5014464;28;20065;-80
2023/07/27 07:06:26;;;;;;;3.15;1.60;;;19.20;85.70;;;;;;5017108;28;20372;-79
2023/07/27 07:08:51;;;;;;;4.28;2.08;;;19.20;85.80;;;;;;5014870;28;20073;-80
2023/07/27 07:11:17;;;;;;;3.13;1.67;;;19.20;85.90;;;;;;5014699;28;20022;-80
2023/07/27 07:13:42;;;;;;;3.30;1.90;;;19.20;85.80;;;;;;5014369;28;20108;-80
2023/07/27 07:16:08;;;;;;;3.53;1.70;;;19.20;85.60;;;;;;5014839;28;20079;-80
2023/07/27 07:18:33;;;;;;;2.70;1.60;;;19.20;85.80;;;;;;5014142;28;20026;-79
2023/07/27 07:20:58;;;;;;;3.55;1.80;;;19.10;85.80;;;;;;5015806;28;20022;-80
2023/07/27 07:23:24;;;;;;;3.63;1.83;;;19.10;85.80;;;;;;5015736;28;20125;-79
2023/07/27 07:25:49;;;;;;;2.90;1.55;;;19.10;85.80;;;;;;5014206;28;20113;-79
2023/07/27 07:28:15;;;;;;;3.97;1.95;;;19.10;85.90;;;;;;5014444;28;20100;-80
2023/07/27 07:30:41;;;;;;;2.92;1.65;;;19.20;85.80;;;;;;5014315;28;20060;-79
2023/07/27 07:33:07;;;;;;;4.30;1.67;;;19.10;85.80;;;;;;5015522;28;20591;-79
2023/07/27 07:35:38;;;;;;;3.22;1.83;;;19.10;85.70;;;;;;5015934;28;20117;-79
2023/07/27 07:38:04;;;;;;;3.95;1.95;;;19.10;85.70;;;;;;5014761;28;20468;-79
2023/07/27 07:40:29;;;;;;;3.85;2.03;;;19.20;85.90;;;;;;5014044;28;20034;-80
2023/07/27 07:42:55;;;;;;;5.20;1.90;;;19.10;85.70;;;;;;5015021;28;20022;-80
2023/07/27 07:45:20;;;;;;;3.67;1.60;;;19.10;85.90;;;;;;5014786;28;20050;-79
2023/07/27 07:47:46;;;;;;;3.65;1.75;;;19.10;85.80;;;;;;5014504;28;20093;-80
2023/07/27 07:50:11;;;;;;;3.60;1.98;;;19.10;86.00;;;;;;5014414;28;20017;-79
2023/07/27 07:52:37;;;;;;;3.15;1.70;;;19.10;85.90;;;;;;5016263;28;20422;-79
2023/07/27 07:55:03;;;;;;;3.33;1.60;;;19.10;85.90;;;;;;5014279;28;20044;-81
2023/07/27 07:57:28;;;;;;;3.67;1.60;;;19.10;86.00;;;;;;5014991;28;20022;-79
2023/07/27 07:59:53;;;;;;;3.25;1.70;;;19.10;86.00;;;;;;5016032;28;20018;-79
2023/07/27 08:02:19;;;;;;;3.13;1.83;;;19.10;85.70;;;;;;5016017;28;20145;-80
2023/07/27 08:04:44;;;;;;;3.10;1.70;;;19.20;85.80;;;;;;5013697;28;20459;-79
2023/07/27 08:07:10;;;;;;;3.33;1.75;;;19.20;85.50;;;;;;5028478;28;20090;-80
2023/07/27 08:09:36;;;;;;;3.88;1.70;;;19.20;85.40;;;;;;5027020;28;20113;-83
2023/07/27 08:12:01;;;;;;;4.20;1.98;;;19.20;85.60;;;;;;5026932;28;20025;-80
2023/07/27 08:14:27;;;;;;;4.35;1.70;;;19.20;85.50;;;;;;5026329;28;20037;-82
2023/07/27 08:16:52;;;;;;;3.10;1.70;;;19.20;85.30;;;;;;5025816;28;20113;-82
2023/07/27 08:19:18;;;;;;;2.95;1.60;;;19.20;85.20;;;;;;5025281;28;20021;-80
2023/07/27 08:21:43;;;;;;;3.70;2.10;;;19.20;85.20;;;;;;5027168;28;20018;-82
2023/07/27 08:24:09;;;;;;;4.13;2.15;;;19.20;85.20;;;;;;5028580;28;20099;-83
2023/07/27 08:26:35;;;;;;;3.30;1.60;;;19.30;85.30;;;;;;5029438;28;20467;-81
2023/07/27 08:29:00;;;;;;;4.22;1.92;;;19.20;85.20;;;;;;5028362;28;20448;-81
2023/07/27 08:31:26;;;;;;;2.83;1.60;;;19.20;85.30;;;;;;5036128;28;20026;-82
2023/07/27 08:33:51;;;;;;;3.90;1.65;;;19.20;85.40;;;;;;5033004;28;20483;-84
2023/07/27 08:36:17;;;;;;;3.45;1.80;;;19.20;85.50;;;;;;5029430;28;20088;-82
2023/07/27 08:38:42;;;;;;;3.10;1.63;;;19.20;85.60;;;;;;5028649;28;20064;-80
2023/07/27 08:41:08;;;;;;;3.40;1.80;;;19.20;85.70;;;;;;5029134;28;20488;-81
2023/07/27 08:43:34;;;;;;;3.17;1.63;;;19.20;85.80;;;;;;5028042;28;20018;-81
2023/07/27 08:46:00;;;;;;;3.33;1.80;;;19.10;85.90;;;;;;5029304;28;20033;-79
2023/07/27 08:48:27;;;;;;;3.13;1.80;;;19.10;86.10;;;;;;5028570;28;20466;-79
2023/07/27 08:50:54;;;;;;;4.55;1.95;;;19.10;86.10;;;;;;5026479;28;20018;-80
2023/07/27 08:53:19;;;;;;;2.60;1.60;;;19.10;86.20;;;;;;5025224;28;20028;-79
2023/07/27 08:55:45;;;;;;;3.53;1.70;;;19.10;86.20;;;;;;5026334;28;20426;-80
2023/07/27 08:58:11;;;;;;;3.08;1.60;;;19.10;86.30;;;;;;5023737;28;20025;-80
2023/07/27 09:00:40;;;;;;;2.90;1.63;;;19.10;86.30;;;;;;5025095;28;20026;-82
2023/07/27 09:03:09;;;;;;;3.05;1.60;;;19.10;86.20;;;;;;5025079;28;20057;-80
2023/07/27 09:05:43;;;;;;;3.40;1.90;;;19.10;86.30;;;;;;5025035;28;20092;-81
2023/07/27 09:08:11;;;;;;;3.78;2.10;;;19.10;86.40;;;;;;5023647;28;20551;-80
2023/07/27 09:10:38;;;;;;;3.58;1.80;;;19.10;86.30;;;;;;5024653;28;20052;-80
2023/07/27 09:13:05;;;;;;;3.72;1.70;;;19.10;86.30;;;;;;5023275;28;20033;-80
2023/07/27 09:15:32;;;;;;;3.17;1.67;;;19.10;86.30;;;;;;5021718;28;20081;-80
2023/07/27 09:17:58;;;;;;;3.40;1.70;;;19.10;86.30;;;;;;5024033;28;20104;-80
2023/07/27 09:20:28;;;;;;;3.08;1.70;;;19.10;86.20;;;;;;5022508;28;20474;-80
2023/07/27 09:22:56;;;;;;;2.75;1.75;;;19.10;86.30;;;;;;5022473;28;20024;-82
2023/07/27 09:25:22;;;;;;;3.17;1.98;;;19.10;86.30;;;;;;5021356;28;20022;-80
2023/07/27 09:27:52;;;;;;;3.08;1.80;;;19.10;86.20;;;;;;5021704;28;20014;-80
2023/07/27 09:30:18;;;;;;;2.55;1.45;;;19.10;86.30;;;;;;5021332;28;20021;-80
2023/07/27 09:32:43;;;;;;;2.80;1.70;;;19.10;86.30;;;;;;5022747;28;20021;-81
2023/07/27 09:35:13;;;;;;;3.03;1.60;;;19.10;86.30;;;;;;5021462;28;20053;-81
2023/07/27 09:37:47;;;;;;;3.25;1.73;;;19.10;86.20;;;;;;5022056;28;20022;-80
2023/07/27 09:40:20;;;;;;;3.45;1.90;;;19.10;86.10;;;;;;5022667;28;20018;-80
2023/07/27 09:42:46;;;;;;;3.67;1.77;;;19.20;86.10;;;;;;5024678;28;20018;-79
2023/07/27 09:45:13;;;;;;;2.85;1.50;;;19.20;86.00;;;;;;5021579;28;20106;-80
2023/07/27 09:47:38;;;;;;;3.17;1.63;;;19.20;85.90;;;;;;5021725;28;20061;-79
2023/07/27 09:50:05;;;;;;;2.88;1.60;;;19.20;85.80;;;;;;5021628;28;20018;-80
2023/07/27 09:52:32;;;;;;;3.33;1.50;;;19.20;85.80;;;;;;5020496;28;20022;-80
2023/07/27 09:54:58;;;;;;;3.45;1.60;;;19.20;85.80;;;;;;5019788;28;20022;-80
2023/07/27 09:57:25;;;;;;;3.17;1.55;;;19.30;85.70;;;;;;5022462;28;20045;-80
2023/07/27 09:59:51;;;;;;;2.80;1.40;;;19.30;85.70;;;;;;5021860;28;20029;-80
2023/07/27 10:02:17;;;;;;;2.97;1.48;;;19.20;86.00;;;;;;5020404;28;20041;-80
2023/07/27 10:04:43;;;;;;;2.25;1.50;;;19.30;85.70;;;;;;5021816;28;20584;-80
2023/07/27 10:07:09;;;;;;;3.28;1.55;;;19.30;85.80;;;;;;5019587;28;20181;-83
2023/07/27 10:09:36;;;;;;;2.53;1.50;;;19.20;85.80;;;;;;5018450;28;20033;-81
2023/07/27 10:12:04;;;;;;;3.28;1.80;;;19.30;85.90;;;;;;5016652;28;20026;-80
2023/07/27 10:14:31;;;;;;;2.83;1.52;;;19.20;86.00;;;;;;5017467;28;20030;-79
2023/07/27 10:17:04;;;;;;;3.03;1.60;;;19.20;86.20;;;;;;5019602;28;20076;-80
2023/07/27 10:19:41;;;;;;;1.98;1.17;;;19.20;86.10;;;;;;5018796;28;20026;-80
2023/07/27 10:22:10;;;;;;;2.15;1.40;;;19.20;86.30;;;;;;5017491;28;20030;-80
2023/07/27 10:24:56;;;;;;;3.55;1.60;;;19.20;86.40;;;;;;5017382;28;20022;-80
2023/07/27 10:27:23;;;;;;;2.50;1.50;;;19.20;86.40;;;;;;5019362;28;20468;-82
2023/07/27 10:29:53;;;;;;;2.78;1.35;;;19.20;86.50;;;;;;5016863;28;20021;-80
2023/07/27 10:32:20;;;;;;;2.53;1.43;;;19.10;86.40;;;;;;5018657;28;20364;-79
2023/07/27 10:34:50;;;;;;;2.80;1.30;;;19.10;86.50;;;;;;5018006;28;20079;-79
2023/07/27 10:37:16;;;;;;;2.05;1.25;;;19.10;86.50;;;;;;5016637;28;20152;-79
2023/07/27 10:39:50;;;;;;;2.05;1.35;;;19.10;86.50;;;;;;5016896;28;20056;-80
2023/07/27 10:42:25;;;;;;;1.98;1.35;;;19.10;86.50;;;;;;5016640;28;20025;-80
2023/07/27 10:44:57;;;;;;;2.45;1.30;;;19.10;86.50;;;;;;5014732;28;20504;-81
2023/07/27 10:47:31;;;;;;;2.15;1.38;;;19.20;86.60;;;;;;5016190;28;20486;-79
2023/07/27 10:49:58;;;;;;;2.15;1.40;;;19.10;86.50;;;;;;5016253;28;20013;-80
2023/07/27 10:52:30;;;;;;;2.35;1.50;;;19.10;86.50;;;;;;5015581;28;20488;-80
2023/07/27 10:54:59;;;;;;;1.80;1.30;;;19.10;86.50;;;;;;5015098;28;20025;-81
2023/07/27 10:57:32;;;;;;;2.38;1.40;;;19.10;86.50;;;;;;5015828;28;20018;-80
2023/07/27 10:59:57;;;;;;;2.00;1.23;;;19.20;86.60;;;;;;5015437;28;20387;-79
2023/07/27 11:02:25;;;;;;;2.38;1.35;;;19.10;86.40;;;;;;5017447;28;20065;-79
2023/07/27 11:04:52;;;;;;;2.60;1.50;;;19.20;86.50;;;;;;5014939;28;20022;-80
2023/07/27 11:07:38;;;;;;;2.83;1.40;;;19.20;86.50;;;;;;5016554;28;20026;-82
2023/07/27 11:10:09;;;;;;;2.70;1.27;;;19.20;86.40;;;;;;5015282;28;20028;-80
2023/07/27 11:12:52;;;;;;;2.33;1.30;;;19.20;86.40;;;;;;5017341;28;20018;-80
2023/07/27 11:15:22;;;;;;;2.30;1.23;;;19.20;86.40;;;;;;5014730;28;20472;-80
2023/07/27 11:17:53;;;;;;;2.20;1.20;;;19.20;86.40;;;;;;5015895;28;20018;-79
2023/07/27 11:20:22;;;;;;;1.65;1.15;;;19.20;86.40;;;;;;5015413;28;20380;-80
2023/07/27 11:22:48;;;;;;;2.67;1.40;;;19.20;86.30;;;;;;5016164;28;20018;-81
2023/07/27 11:25:14;;;;;;;1.27;1.10;;;19.20;86.20;;;;;;5014454;28;20029;-80
2023/07/27 11:27:39;;;;;;;1.83;1.20;;;19.20;86.20;;;;;;5014489;28;20018;-80
2023/07/27 11:30:09;;;;;;;2.08;1.10;;;19.20;86.20;;;;;;5014477;28;20018;-80
2023/07/27 11:32:35;;;;;;;2.53;1.40;;;19.30;86.10;;;;;;5014659;28;20041;-80
2023/07/27 11:35:00;;;;;;;2.35;1.23;;;19.30;86.10;;;;;;5014352;28;20476;-80
2023/07/27 11:37:28;;;;;;;2.25;1.20;;;19.30;86.60;;;;;;5014798;28;20021;-80
2023/07/27 11:39:55;;;;;;;2.38;1.38;;;19.30;86.00;;;;;;5014566;28;20044;-80
2023/07/27 11:42:34;;;;;;;2.13;1.30;;;19.30;86.00;;;;;;5016018;28;20037;-80
2023/07/27 11:45:00;;;;;;;1.92;1.17;;;19.30;86.00;;;;;;5014095;28;20053;-80
2023/07/27 11:47:26;;;;;;;1.65;1.10;;;19.20;86.00;;;;;;5020681;28;20041;-83
2023/07/27 11:49:53;;;;;;;1.85;1.20;;;19.20;86.60;;;;;;5032447;28;20037;-83
2023/07/27 11:52:20;;;;;;;2.03;1.20;;;19.20;86.20;;;;;;5032324;28;20026;-83
2023/07/27 11:54:50;;;;;;;1.90;1.20;;;19.20;86.30;;;;;;5029973;28;20029;-84
2023/07/27 11:57:15;;;;;;;2.08;1.30;;;19.20;86.40;;;;;;5025035;28;20029;-82
2023/07/27 11:59:41;;;;;;;1.55;1.00;;;19.20;86.40;;;;;;5024986;28;20025;-81
2023/07/27 12:02:07;;;;;;;2.72;1.30;;;19.20;86.40;;;;;;5023977;28;20381;-81
2023/07/27 12:04:32;;;;;;;1.90;1.08;;;19.20;86.40;;;;;;5028091;28;20034;-82
2023/07/27 12:06:58;;;;;;;2.00;1.27;;;19.20;86.40;;;;;;5027424;28;20026;-81
2023/07/27 12:09:23;;;;;;;2.00;1.23;;;19.20;86.40;;;;;;5026841;28;20018;-82
2023/07/27 12:11:49;;;;;;;2.15;1.23;;;19.20;86.40;;;;;;5028996;28;20038;-82
2023/07/27 12:14:20;;;;;;;1.98;1.20;;;19.20;86.40;;;;;;5032929;28;20029;-83
2023/07/27 12:16:46;;;;;;;1.88;1.20;;;19.20;86.50;;;;;;5031998;28;20534;-81
2023/07/27 12:19:11;;;;;;;1.98;0.98;;;19.10;86.40;;;;;;5031473;28;20025;-81
2023/07/27 12:21:38;;;;;;;1.38;1.00;;;19.20;86.50;;;;;;5030658;28;20072;-81
2023/07/27 12:24:08;;;;;;;1.27;0.90;;;19.20;86.60;;;;;;5029617;28;20022;-82
2023/07/27 12:26:34;;;;;;;1.60;1.02;;;19.10;86.50;;;;;;5029837;28;20022;-82
2023/07/27 12:28:59;;;;;;;1.50;1.05;;;19.20;86.60;;;;;;5030668;28;20030;-81
2023/07/27 12:31:25;;;;;;;2.40;1.30;;;19.20;86.70;;;;;;5028408;28;20550;-80
2023/07/27 12:33:50;;;;;;;1.70;1.10;;;19.10;86.70;;;;;;5028431;28;20033;-82
2023/07/27 12:36:16;;;;;;;2.00;1.10;;;19.20;86.70;;;;;;5026676;28;20018;-82
2023/07/27 12:38:41;;;;;;;2.20;1.20;;;19.10;86.50;;;;;;5026260;28;20026;-82
2023/07/27 12:41:07;;;;;;;1.83;1.00;;;19.10;86.60;;;;;;5027408;28;20022;-81
2023/07/27 12:43:32;;;;;;;1.98;1.30;;;19.10;86.60;;;;;;5029118;28;20029;-81
2023/07/27 12:45:58;;;;;;;1.67;1.10;;;19.10;86.60;;;;;;5024872;28;20353;-80
2023/07/27 12:48:23;;;;;;;1.50;1.10;;;19.10;86.50;;;;;;5024975;28;20022;-80
2023/07/27 12:50:49;;;;;;;1.70;1.15;;;19.20;86.70;;;;;;5026477;28;20022;-80
2023/07/27 12:53:14;;;;;;;1.92;1.00;;;19.10;86.70;;;;;;5027435;28;20026;-80
2023/07/27 12:55:40;;;;;;;1.90;1.15;;;19.10;86.70;;;;;;5026941;28;20029;-81
2023/07/27 12:58:05;;;;;;;2.03;1.10;;;19.10;86.70;;;;;;5027637;28;20423;-80
2023/07/27 13:00:31;;;;;;;1.30;1.00;;;19.20;86.70;;;;;;5026707;28;20018;-80
2023/07/27 13:02:56;;;;;;;1.75;1.17;;;19.30;86.60;;;;;;5026256;28;20032;-84
2023/07/27 13:05:22;;;;;;;1.38;1.00;;;19.20;86.40;;;;;;5024826;28;20079;-81
2023/07/27 13:07:48;;;;;;;2.22;0.93;;;19.20;86.30;;;;;;5024804;28;20018;-82
2023/07/27 13:10:15;;;;;;;1.48;1.08;;;19.30;86.80;;;;;;5023803;28;20013;-80
2023/07/27 13:12:41;;;;;;;2.00;1.08;;;19.20;86.20;;;;;;5023153;28;20498;-81
2023/07/27 13:15:07;;;;;;;1.38;0.98;;;19.30;86.20;;;;;;5022157;28;20057;-82
2023/07/27 13:17:34;;;;;;;1.08;0.80;;;19.30;86.10;;;;;;5024041;28;20091;-80
2023/07/27 13:20:00;;;;;;;1.60;1.10;;;19.30;86.20;;;;;;5022549;28;20022;-81
2023/07/27 13:22:25;;;;;;;1.42;1.00;;;19.30;86.20;;;;;;5023943;28;20491;-80
2023/07/27 13:24:51;;;;;;;1.58;1.00;;;19.30;86.20;;;;;;5022819;28;20049;-81
2023/07/27 13:27:16;;;;;;;1.13;0.80;;;19.20;86.10;;;;;;5023177;28;20021;-80
2023/07/27 13:29:42;;;;;;;1.00;0.85;;;19.20;86.20;;;;;;5022221;28;20022;-80
2023/07/27 13:32:08;;;;;;;0.80;0.73;;;19.20;86.30;;;;;;5025169;28;20025;-80
2023/07/27 13:34:33;;;;;;;1.40;0.90;;;19.20;86.40;;;;;;5020237;28;20025;-82
2023/07/27 13:37:01;;;;;;;1.25;0.98;;;19.20;86.40;;;;;;5020924;28;20100;-81
2023/07/27 13:39:28;;;;;;;1.10;0.90;;;19.20;86.50;;;;;;5019732;28;20028;-80
2023/07/27 13:41:53;;;;;;;1.67;1.00;;;19.20;86.50;;;;;;5018821;28;20121;-80
2023/07/27 13:44:19;;;;;;;1.40;1.00;;;19.20;86.70;;;;;;5018142;28;20088;-80
2023/07/27 13:46:45;;;;;;;1.60;0.90;;;19.20;86.70;;;;;;5021490;28;20547;-79
2023/07/27 13:49:10;;;;;;;1.17;0.88;;;19.10;86.70;;;;;;5035605;28;20021;-82
2023/07/27 13:51:36;;;;;;;1.73;1.00;;;19.10;86.70;;;;;;5022270;28;20020;-80
2023/07/27 13:54:01;;;;;;;1.50;1.02;;;19.20;86.80;;;;;;5033425;28;20017;-80
2023/07/27 13:56:27;;;;;;;1.17;0.88;;;19.10;86.80;;;;;;5029952;28;20021;-81
2023/07/27 13:58:52;;;;;;;2.25;1.10;;;19.20;86.90;;;;;;5035405;28;20029;-81
2023/07/27 14:01:18;;;;;;;1.42;1.00;;;19.20;86.70;;;;;;5028729;28;20104;-82
2023/07/27 14:03:43;;;;;;;0.95;0.80;;;19.20;86.80;;;;;;5022291;28;20093;-82
2023/07/27 14:06:09;;;;;;;1.35;1.00;;;19.20;86.80;;;;;;5005020;28;20087;-83
2023/07/27 14:08:35;;;;;;;1.30;0.80;;;19.10;86.80;;;;;;5009426;28;20030;-80
2023/07/27 14:11:00;;;;;;;1.30;0.90;;;19.10;86.80;;;;;;5026275;28;20018;-78
2023/07/27 14:13:26;;;;;;;1.10;0.90;;;19.10;86.70;;;;;;5021255;28;20415;-82
2023/07/27 14:15:51;;;;;;;1.45;1.00;;;19.10;86.70;;;;;;4997140;28;20029;-80